sensor_id;sensor_type;location;lat;lon;timestamp;P1;durP1;ratioP1;P2;durP2;ratioP2
11185;SDS011;5649;52.422;13.754;2022-12-13T00:02:20;3.80;;;2.50;;
11185;SDS011;5649;52.422;13.754;2022-12-13T00:04:46;3.50;;;2.40;;
11185;SDS011;5649;52.422;13.754;2022-12-13T00:07:12;4.70;;;2.80;;
11185;SDS011;5649;52.422;13.754;2022-12-13T00:09:38;3.37;;;2.93;;
11185;SDS011;5649;52.422;13.754;2022-12-13T00:12:06;3.73;;;2.17;;
11185;SDS011;5649;52.422;13.754;2022-12-13T00:17:03;5.53;;;2.97;;
11185;SDS011;5649;52.422;13.754;2022-12-13T00:19:30;8.80;;;2.70;;
11185;SDS011;5649;52.422;13.754;2022-12-13T00:21:56;6.57;;;3.10;;
11185;SDS011;5649;52.422;13.754;2022-12-13T00:24:22;8.27;;;3.37;;
11185;SDS011;5649;52.422;13.754;2022-12-13T00:26:48;5.27;;;3.10;;
11185;SDS011;5649;52.422;13.754;2022-12-13T00:29:14;3.50;;;2.50;;
11185;SDS011;5649;52.422;13.754;2022-12-13T00:31:40;7.20;;;2.93;;
11185;SDS011;5649;52.422;13.754;2022-12-13T00:34:06;4.07;;;2.40;;
11185;SDS011;5649;52.422;13.754;2022-12-13T00:36:32;7.03;;;3.87;;
11185;SDS011;5649;52.422;13.754;2022-12-13T00:38:58;4.90;;;3.33;;
11185;SDS011;5649;52.422;13.754;2022-12-13T00:41:25;5.10;;;2.90;;
11185;SDS011;5649;52.422;13.754;2022-12-13T00:43:52;11.27;;;4.07;;
11185;SDS011;5649;52.422;13.754;2022-12-13T00:46:18;3.67;;;3.13;;
11185;SDS011;5649;52.422;13.754;2022-12-13T00:48:50;4.87;;;3.33;;
11185;SDS011;5649;52.422;13.754;2022-12-13T00:51:17;5.87;;;3.40;;
11185;SDS011;5649;52.422;13.754;2022-12-13T00:53:43;5.27;;;2.80;;
11185;SDS011;5649;52.422;13.754;2022-12-13T00:56:17;5.43;;;3.47;;
11185;SDS011;5649;52.422;13.754;2022-12-13T00:58:45;4.77;;;3.03;;
11185;SDS011;5649;52.422;13.754;2022-12-13T01:01:12;4.93;;;3.43;;
11185;SDS011;5649;52.422;13.754;2022-12-13T01:03:39;5.40;;;3.50;;
11185;SDS011;5649;52.422;13.754;2022-12-13T01:06:40;8.13;;;3.70;;
11185;SDS011;5649;52.422;13.754;2022-12-13T01:08:58;4.20;;;3.37;;
11185;SDS011;5649;52.422;13.754;2022-12-13T01:11:24;7.27;;;4.10;;
11185;SDS011;5649;52.422;13.754;2022-12-13T01:13:51;12.90;;;4.27;;
11185;SDS011;5649;52.422;13.754;2022-12-13T01:16:17;7.60;;;3.57;;
11185;SDS011;5649;52.422;13.754;2022-12-13T01:18:43;9.40;;;3.97;;
11185;SDS011;5649;52.422;13.754;2022-12-13T01:21:11;4.70;;;3.17;;
11185;SDS011;5649;52.422;13.754;2022-12-13T01:23:37;6.40;;;4.03;;
11185;SDS011;5649;52.422;13.754;2022-12-13T01:26:04;6.10;;;3.23;;
11185;SDS011;5649;52.422;13.754;2022-12-13T01:28:30;4.93;;;3.27;;
11185;SDS011;5649;52.422;13.754;2022-12-13T01:30:57;6.20;;;2.80;;
11185;SDS011;5649;52.422;13.754;2022-12-13T01:33:23;6.20;;;3.50;;
11185;SDS011;5649;52.422;13.754;2022-12-13T01:35:50;7.47;;;3.50;;
11185;SDS011;5649;52.422;13.754;2022-12-13T01:38:16;6.87;;;3.40;;
11185;SDS011;5649;52.422;13.754;2022-12-13T01:40:43;5.07;;;3.30;;
11185;SDS011;5649;52.422;13.754;2022-12-13T01:43:13;6.70;;;4.47;;
11185;SDS011;5649;52.422;13.754;2022-12-13T01:45:39;6.53;;;3.70;;
11185;SDS011;5649;52.422;13.754;2022-12-13T01:48:06;5.10;;;3.50;;
11185;SDS011;5649;52.422;13.754;2022-12-13T01:50:35;25.77;;;4.13;;
11185;SDS011;5649;52.422;13.754;2022-12-13T01:53:02;5.97;;;2.73;;
11185;SDS011;5649;52.422;13.754;2022-12-13T01:55:30;4.57;;;3.90;;
11185;SDS011;5649;52.422;13.754;2022-12-13T01:57:59;8.47;;;4.43;;
11185;SDS011;5649;52.422;13.754;2022-12-13T02:00:26;4.77;;;2.53;;
11185;SDS011;5649;52.422;13.754;2022-12-13T02:02:53;4.80;;;3.50;;
11185;SDS011;5649;52.422;13.754;2022-12-13T02:07:54;5.60;;;3.47;;
11185;SDS011;5649;52.422;13.754;2022-12-13T02:10:21;6.67;;;3.40;;
11185;SDS011;5649;52.422;13.754;2022-12-13T02:12:48;4.53;;;3.80;;
11185;SDS011;5649;52.422;13.754;2022-12-13T02:15:15;6.10;;;3.10;;
11185;SDS011;5649;52.422;13.754;2022-12-13T02:20:29;8.03;;;3.60;;
11185;SDS011;5649;52.422;13.754;2022-12-13T02:30:51;4.67;;;3.20;;
11185;SDS011;5649;52.422;13.754;2022-12-13T02:35:58;3.93;;;2.73;;
11185;SDS011;5649;52.422;13.754;2022-12-13T02:38:32;2.83;;;2.40;;
11185;SDS011;5649;52.422;13.754;2022-12-13T02:44:16;6.33;;;3.53;;
11185;SDS011;5649;52.422;13.754;2022-12-13T02:46:21;6.67;;;3.27;;
11185;SDS011;5649;52.422;13.754;2022-12-13T02:48:51;7.40;;;3.73;;
11185;SDS011;5649;52.422;13.754;2022-12-13T02:51:19;7.57;;;3.40;;
11185;SDS011;5649;52.422;13.754;2022-12-13T02:53:47;9.50;;;2.83;;
11185;SDS011;5649;52.422;13.754;2022-12-13T02:56:13;8.27;;;4.07;;
11185;SDS011;5649;52.422;13.754;2022-12-13T02:58:41;6.33;;;4.07;;
11185;SDS011;5649;52.422;13.754;2022-12-13T03:06:16;4.60;;;3.00;;
11185;SDS011;5649;52.422;13.754;2022-12-13T03:14:27;8.60;;;3.37;;
11185;SDS011;5649;52.422;13.754;2022-12-13T03:16:54;7.33;;;3.37;;
11185;SDS011;5649;52.422;13.754;2022-12-13T03:19:22;6.50;;;3.77;;
11185;SDS011;5649;52.422;13.754;2022-12-13T03:21:49;7.60;;;4.10;;
11185;SDS011;5649;52.422;13.754;2022-12-13T03:24:15;9.30;;;4.20;;
11185;SDS011;5649;52.422;13.754;2022-12-13T03:26:41;11.37;;;5.63;;
11185;SDS011;5649;52.422;13.754;2022-12-13T03:29:08;6.20;;;4.37;;
11185;SDS011;5649;52.422;13.754;2022-12-13T03:31:34;10.20;;;4.83;;
11185;SDS011;5649;52.422;13.754;2022-12-13T03:34:00;8.50;;;4.73;;
11185;SDS011;5649;52.422;13.754;2022-12-13T03:36:26;8.90;;;3.70;;
11185;SDS011;5649;52.422;13.754;2022-12-13T03:38:52;11.17;;;4.60;;
11185;SDS011;5649;52.422;13.754;2022-12-13T03:41:23;13.73;;;4.33;;
11185;SDS011;5649;52.422;13.754;2022-12-13T03:43:55;7.80;;;4.67;;
11185;SDS011;5649;52.422;13.754;2022-12-13T03:46:21;9.70;;;4.70;;
11185;SDS011;5649;52.422;13.754;2022-12-13T03:48:47;11.90;;;5.10;;
11185;SDS011;5649;52.422;13.754;2022-12-13T03:51:13;8.20;;;5.30;;
11185;SDS011;5649;52.422;13.754;2022-12-13T03:53:39;17.10;;;6.43;;
11185;SDS011;5649;52.422;13.754;2022-12-13T03:56:06;11.00;;;6.07;;
11185;SDS011;5649;52.422;13.754;2022-12-13T03:58:32;11.93;;;5.80;;
11185;SDS011;5649;52.422;13.754;2022-12-13T04:00:59;10.20;;;4.90;;
11185;SDS011;5649;52.422;13.754;2022-12-13T04:03:25;12.70;;;5.73;;
11185;SDS011;5649;52.422;13.754;2022-12-13T04:05:51;28.47;;;6.10;;
11185;SDS011;5649;52.422;13.754;2022-12-13T04:08:17;9.53;;;4.73;;
11185;SDS011;5649;52.422;13.754;2022-12-13T04:10:43;9.07;;;5.40;;
11185;SDS011;5649;52.422;13.754;2022-12-13T04:13:09;10.13;;;5.43;;
11185;SDS011;5649;52.422;13.754;2022-12-13T04:15:54;9.57;;;5.57;;
11185;SDS011;5649;52.422;13.754;2022-12-13T04:18:20;12.20;;;5.67;;
11185;SDS011;5649;52.422;13.754;2022-12-13T04:20:46;10.57;;;6.10;;
11185;SDS011;5649;52.422;13.754;2022-12-13T04:23:12;12.90;;;6.00;;
11185;SDS011;5649;52.422;13.754;2022-12-13T04:25:39;10.13;;;5.80;;
11185;SDS011;5649;52.422;13.754;2022-12-13T04:28:05;13.90;;;6.50;;
11185;SDS011;5649;52.422;13.754;2022-12-13T04:30:31;14.23;;;6.00;;
11185;SDS011;5649;52.422;13.754;2022-12-13T04:32:58;10.07;;;5.73;;
11185;SDS011;5649;52.422;13.754;2022-12-13T04:35:24;13.20;;;6.07;;
11185;SDS011;5649;52.422;13.754;2022-12-13T04:37:50;11.70;;;6.03;;
11185;SDS011;5649;52.422;13.754;2022-12-13T04:40:16;9.03;;;4.77;;
11185;SDS011;5649;52.422;13.754;2022-12-13T04:42:42;13.10;;;6.37;;
11185;SDS011;5649;52.422;13.754;2022-12-13T04:45:09;15.00;;;5.53;;
11185;SDS011;5649;52.422;13.754;2022-12-13T04:47:38;9.30;;;4.77;;
11185;SDS011;5649;52.422;13.754;2022-12-13T04:50:04;11.70;;;5.67;;
11185;SDS011;5649;52.422;13.754;2022-12-13T04:52:30;8.63;;;4.83;;
11185;SDS011;5649;52.422;13.754;2022-12-13T04:54:56;11.10;;;5.20;;
11185;SDS011;5649;52.422;13.754;2022-12-13T04:57:23;14.67;;;6.33;;
11185;SDS011;5649;52.422;13.754;2022-12-13T04:59:49;10.73;;;5.87;;
11185;SDS011;5649;52.422;13.754;2022-12-13T05:02:15;11.03;;;5.67;;
11185;SDS011;5649;52.422;13.754;2022-12-13T05:04:41;11.33;;;4.97;;
11185;SDS011;5649;52.422;13.754;2022-12-13T05:07:07;17.00;;;8.10;;
11185;SDS011;5649;52.422;13.754;2022-12-13T05:09:33;10.00;;;5.40;;
11185;SDS011;5649;52.422;13.754;2022-12-13T05:11:59;7.10;;;4.67;;
11185;SDS011;5649;52.422;13.754;2022-12-13T05:14:25;11.20;;;6.40;;
11185;SDS011;5649;52.422;13.754;2022-12-13T05:16:51;10.40;;;5.20;;
11185;SDS011;5649;52.422;13.754;2022-12-13T05:19:17;13.53;;;6.77;;
11185;SDS011;5649;52.422;13.754;2022-12-13T05:21:43;19.00;;;9.90;;
11185;SDS011;5649;52.422;13.754;2022-12-13T05:24:09;18.70;;;10.57;;
11185;SDS011;5649;52.422;13.754;2022-12-13T05:26:36;12.77;;;6.77;;
11185;SDS011;5649;52.422;13.754;2022-12-13T05:29:02;21.60;;;7.80;;
11185;SDS011;5649;52.422;13.754;2022-12-13T05:31:28;11.57;;;6.70;;
11185;SDS011;5649;52.422;13.754;2022-12-13T05:33:54;12.43;;;5.90;;
11185;SDS011;5649;52.422;13.754;2022-12-13T05:36:20;11.67;;;6.47;;
11185;SDS011;5649;52.422;13.754;2022-12-13T05:38:49;11.43;;;6.93;;
11185;SDS011;5649;52.422;13.754;2022-12-13T05:41:16;11.63;;;6.10;;
11185;SDS011;5649;52.422;13.754;2022-12-13T05:43:42;14.13;;;5.07;;
11185;SDS011;5649;52.422;13.754;2022-12-13T05:46:08;6.23;;;4.77;;
11185;SDS011;5649;52.422;13.754;2022-12-13T05:48:34;12.90;;;6.70;;
11185;SDS011;5649;52.422;13.754;2022-12-13T05:51:00;12.33;;;6.60;;
11185;SDS011;5649;52.422;13.754;2022-12-13T05:53:27;12.50;;;6.33;;
11185;SDS011;5649;52.422;13.754;2022-12-13T05:55:53;25.97;;;8.03;;
11185;SDS011;5649;52.422;13.754;2022-12-13T05:58:19;13.83;;;6.20;;
11185;SDS011;5649;52.422;13.754;2022-12-13T06:00:45;15.03;;;6.43;;
11185;SDS011;5649;52.422;13.754;2022-12-13T06:03:12;13.43;;;6.30;;
11185;SDS011;5649;52.422;13.754;2022-12-13T06:05:38;14.37;;;6.97;;
11185;SDS011;5649;52.422;13.754;2022-12-13T06:08:06;11.63;;;5.47;;
11185;SDS011;5649;52.422;13.754;2022-12-13T06:10:32;15.77;;;7.90;;
11185;SDS011;5649;52.422;13.754;2022-12-13T06:12:58;12.33;;;6.03;;
11185;SDS011;5649;52.422;13.754;2022-12-13T06:15:24;10.30;;;5.97;;
11185;SDS011;5649;52.422;13.754;2022-12-13T06:17:50;10.27;;;5.47;;
11185;SDS011;5649;52.422;13.754;2022-12-13T06:20:16;11.80;;;6.10;;
11185;SDS011;5649;52.422;13.754;2022-12-13T06:22:42;10.40;;;6.03;;
11185;SDS011;5649;52.422;13.754;2022-12-13T06:25:09;8.70;;;5.13;;
11185;SDS011;5649;52.422;13.754;2022-12-13T06:27:35;11.20;;;5.87;;
11185;SDS011;5649;52.422;13.754;2022-12-13T06:30:01;8.37;;;5.07;;
11185;SDS011;5649;52.422;13.754;2022-12-13T06:32:27;12.97;;;5.83;;
11185;SDS011;5649;52.422;13.754;2022-12-13T06:34:53;10.70;;;4.40;;
11185;SDS011;5649;52.422;13.754;2022-12-13T06:37:19;16.73;;;7.00;;
11185;SDS011;5649;52.422;13.754;2022-12-13T06:39:45;12.90;;;6.00;;
11185;SDS011;5649;52.422;13.754;2022-12-13T06:42:16;14.80;;;6.00;;
11185;SDS011;5649;52.422;13.754;2022-12-13T06:44:42;22.40;;;4.87;;
11185;SDS011;5649;52.422;13.754;2022-12-13T06:47:08;9.20;;;6.23;;
11185;SDS011;5649;52.422;13.754;2022-12-13T06:49:34;15.03;;;6.60;;
11185;SDS011;5649;52.422;13.754;2022-12-13T06:52:01;12.33;;;5.73;;
11185;SDS011;5649;52.422;13.754;2022-12-13T06:54:27;10.33;;;5.97;;
11185;SDS011;5649;52.422;13.754;2022-12-13T06:56:53;19.00;;;7.43;;
11185;SDS011;5649;52.422;13.754;2022-12-13T06:59:19;13.07;;;6.00;;
11185;SDS011;5649;52.422;13.754;2022-12-13T07:01:46;12.20;;;6.17;;
11185;SDS011;5649;52.422;13.754;2022-12-13T07:04:12;13.50;;;7.33;;
11185;SDS011;5649;52.422;13.754;2022-12-13T07:06:38;16.43;;;8.07;;
11185;SDS011;5649;52.422;13.754;2022-12-13T07:09:04;22.00;;;9.30;;
11185;SDS011;5649;52.422;13.754;2022-12-13T07:11:31;11.33;;;6.50;;
11185;SDS011;5649;52.422;13.754;2022-12-13T07:13:57;19.33;;;5.60;;
11185;SDS011;5649;52.422;13.754;2022-12-13T07:16:24;8.53;;;5.07;;
11185;SDS011;5649;52.422;13.754;2022-12-13T07:18:54;8.23;;;4.33;;
11185;SDS011;5649;52.422;13.754;2022-12-13T07:21:20;13.47;;;6.00;;
11185;SDS011;5649;52.422;13.754;2022-12-13T07:23:46;10.77;;;4.77;;
11185;SDS011;5649;52.422;13.754;2022-12-13T07:26:12;12.73;;;5.97;;
11185;SDS011;5649;52.422;13.754;2022-12-13T07:28:38;16.27;;;6.13;;
11185;SDS011;5649;52.422;13.754;2022-12-13T07:31:06;11.10;;;5.90;;
11185;SDS011;5649;52.422;13.754;2022-12-13T07:33:32;14.70;;;5.70;;
11185;SDS011;5649;52.422;13.754;2022-12-13T07:35:59;13.27;;;5.17;;
11185;SDS011;5649;52.422;13.754;2022-12-13T07:38:25;12.33;;;5.53;;
11185;SDS011;5649;52.422;13.754;2022-12-13T07:40:54;12.83;;;5.43;;
11185;SDS011;5649;52.422;13.754;2022-12-13T07:43:20;9.70;;;5.70;;
11185;SDS011;5649;52.422;13.754;2022-12-13T07:45:46;12.10;;;5.80;;
11185;SDS011;5649;52.422;13.754;2022-12-13T07:48:12;11.50;;;5.80;;
11185;SDS011;5649;52.422;13.754;2022-12-13T07:50:38;8.40;;;4.77;;
11185;SDS011;5649;52.422;13.754;2022-12-13T07:53:05;9.07;;;5.77;;
11185;SDS011;5649;52.422;13.754;2022-12-13T07:55:32;8.83;;;4.43;;
11185;SDS011;5649;52.422;13.754;2022-12-13T07:58:17;13.03;;;5.63;;
11185;SDS011;5649;52.422;13.754;2022-12-13T08:00:44;10.03;;;5.20;;
11185;SDS011;5649;52.422;13.754;2022-12-13T08:03:10;8.67;;;4.93;;
11185;SDS011;5649;52.422;13.754;2022-12-13T08:05:36;17.10;;;7.30;;
11185;SDS011;5649;52.422;13.754;2022-12-13T08:08:03;8.40;;;5.60;;
11185;SDS011;5649;52.422;13.754;2022-12-13T08:10:30;12.03;;;5.97;;
11185;SDS011;5649;52.422;13.754;2022-12-13T08:12:56;21.93;;;6.37;;
11185;SDS011;5649;52.422;13.754;2022-12-13T08:15:23;13.30;;;6.33;;
11185;SDS011;5649;52.422;13.754;2022-12-13T08:17:49;9.57;;;5.60;;
11185;SDS011;5649;52.422;13.754;2022-12-13T08:20:16;13.60;;;6.30;;
11185;SDS011;5649;52.422;13.754;2022-12-13T08:22:43;9.33;;;5.17;;
11185;SDS011;5649;52.422;13.754;2022-12-13T08:25:09;15.63;;;5.67;;
11185;SDS011;5649;52.422;13.754;2022-12-13T08:27:35;12.67;;;6.00;;
11185;SDS011;5649;52.422;13.754;2022-12-13T08:30:02;9.10;;;6.37;;
11185;SDS011;5649;52.422;13.754;2022-12-13T08:32:28;11.33;;;6.03;;
11185;SDS011;5649;52.422;13.754;2022-12-13T08:34:54;11.57;;;5.93;;
11185;SDS011;5649;52.422;13.754;2022-12-13T08:37:20;14.00;;;6.43;;
11185;SDS011;5649;52.422;13.754;2022-12-13T08:39:46;21.97;;;6.33;;
11185;SDS011;5649;52.422;13.754;2022-12-13T08:42:13;16.70;;;5.27;;
11185;SDS011;5649;52.422;13.754;2022-12-13T08:44:40;12.97;;;6.00;;
11185;SDS011;5649;52.422;13.754;2022-12-13T08:47:06;9.80;;;5.57;;
11185;SDS011;5649;52.422;13.754;2022-12-13T08:49:32;12.07;;;6.30;;
11185;SDS011;5649;52.422;13.754;2022-12-13T08:51:58;14.40;;;6.70;;
11185;SDS011;5649;52.422;13.754;2022-12-13T08:54:24;10.70;;;5.90;;
11185;SDS011;5649;52.422;13.754;2022-12-13T08:56:51;12.27;;;6.97;;
11185;SDS011;5649;52.422;13.754;2022-12-13T08:59:17;12.80;;;6.40;;
11185;SDS011;5649;52.422;13.754;2022-12-13T09:01:43;9.57;;;5.27;;
11185;SDS011;5649;52.422;13.754;2022-12-13T09:04:10;11.13;;;5.97;;
11185;SDS011;5649;52.422;13.754;2022-12-13T09:06:36;12.37;;;6.40;;
11185;SDS011;5649;52.422;13.754;2022-12-13T09:09:02;23.13;;;6.13;;
11185;SDS011;5649;52.422;13.754;2022-12-13T09:11:28;13.03;;;6.50;;
11185;SDS011;5649;52.422;13.754;2022-12-13T09:13:54;14.43;;;7.03;;
11185;SDS011;5649;52.422;13.754;2022-12-13T09:16:20;14.93;;;6.63;;
11185;SDS011;5649;52.422;13.754;2022-12-13T09:18:48;11.47;;;6.00;;
11185;SDS011;5649;52.422;13.754;2022-12-13T09:21:15;10.70;;;5.53;;
11185;SDS011;5649;52.422;13.754;2022-12-13T09:23:41;10.40;;;5.30;;
11185;SDS011;5649;52.422;13.754;2022-12-13T09:26:08;10.57;;;5.33;;
11185;SDS011;5649;52.422;13.754;2022-12-13T09:28:35;17.13;;;6.80;;
11185;SDS011;5649;52.422;13.754;2022-12-13T09:31:08;11.77;;;6.37;;
11185;SDS011;5649;52.422;13.754;2022-12-13T09:33:34;13.13;;;5.53;;
11185;SDS011;5649;52.422;13.754;2022-12-13T09:36:02;12.57;;;5.30;;
11185;SDS011;5649;52.422;13.754;2022-12-13T09:38:29;14.60;;;6.80;;
11185;SDS011;5649;52.422;13.754;2022-12-13T09:40:55;11.00;;;6.10;;
11185;SDS011;5649;52.422;13.754;2022-12-13T09:43:24;12.73;;;7.60;;
11185;SDS011;5649;52.422;13.754;2022-12-13T09:45:51;13.50;;;7.20;;
11185;SDS011;5649;52.422;13.754;2022-12-13T09:48:18;10.53;;;6.23;;
11185;SDS011;5649;52.422;13.754;2022-12-13T09:50:44;10.77;;;6.30;;
11185;SDS011;5649;52.422;13.754;2022-12-13T09:53:12;16.37;;;6.20;;
11185;SDS011;5649;52.422;13.754;2022-12-13T09:55:40;13.10;;;6.13;;
11185;SDS011;5649;52.422;13.754;2022-12-13T09:58:12;12.80;;;7.30;;
11185;SDS011;5649;52.422;13.754;2022-12-13T10:00:39;13.60;;;6.20;;
11185;SDS011;5649;52.422;13.754;2022-12-13T10:03:09;16.03;;;5.50;;
11185;SDS011;5649;52.422;13.754;2022-12-13T10:05:37;12.73;;;6.50;;
11185;SDS011;5649;52.422;13.754;2022-12-13T10:08:22;10.47;;;5.37;;
11185;SDS011;5649;52.422;13.754;2022-12-13T10:10:50;9.77;;;5.93;;
11185;SDS011;5649;52.422;13.754;2022-12-13T10:13:28;17.93;;;6.40;;
11185;SDS011;5649;52.422;13.754;2022-12-13T10:16:01;14.63;;;5.33;;
11185;SDS011;5649;52.422;13.754;2022-12-13T10:18:32;13.17;;;7.23;;
11185;SDS011;5649;52.422;13.754;2022-12-13T10:20:59;11.70;;;6.40;;
11185;SDS011;5649;52.422;13.754;2022-12-13T10:23:26;25.97;;;8.30;;
11185;SDS011;5649;52.422;13.754;2022-12-13T10:25:52;10.20;;;4.63;;
11185;SDS011;5649;52.422;13.754;2022-12-13T10:28:27;17.93;;;7.23;;
11185;SDS011;5649;52.422;13.754;2022-12-13T10:30:54;14.43;;;5.80;;
11185;SDS011;5649;52.422;13.754;2022-12-13T10:33:26;14.50;;;5.63;;
11185;SDS011;5649;52.422;13.754;2022-12-13T10:36:04;10.87;;;5.47;;
11185;SDS011;5649;52.422;13.754;2022-12-13T10:38:30;19.93;;;6.87;;
11185;SDS011;5649;52.422;13.754;2022-12-13T10:40:59;10.50;;;5.77;;
11185;SDS011;5649;52.422;13.754;2022-12-13T10:43:26;20.17;;;6.57;;
11185;SDS011;5649;52.422;13.754;2022-12-13T10:51:20;14.83;;;5.73;;
11185;SDS011;5649;52.422;13.754;2022-12-13T10:53:57;17.43;;;7.53;;
11185;SDS011;5649;52.422;13.754;2022-12-13T10:56:38;16.33;;;6.20;;
11185;SDS011;5649;52.422;13.754;2022-12-13T11:01:45;23.47;;;6.00;;
11185;SDS011;5649;52.422;13.754;2022-12-13T11:07:28;19.97;;;6.20;;
11185;SDS011;5649;52.422;13.754;2022-12-13T11:09:53;23.10;;;7.60;;
11185;SDS011;5649;52.422;13.754;2022-12-13T11:12:20;15.40;;;7.03;;
11185;SDS011;5649;52.422;13.754;2022-12-13T11:14:56;18.73;;;5.37;;
11185;SDS011;5649;52.422;13.754;2022-12-13T11:17:25;13.60;;;5.83;;
11185;SDS011;5649;52.422;13.754;2022-12-13T11:19:52;10.40;;;6.27;;
11185;SDS011;5649;52.422;13.754;2022-12-13T11:22:27;11.23;;;6.00;;
11185;SDS011;5649;52.422;13.754;2022-12-13T11:24:56;16.70;;;5.63;;
11185;SDS011;5649;52.422;13.754;2022-12-13T11:30:07;17.10;;;5.67;;
11185;SDS011;5649;52.422;13.754;2022-12-13T11:37:53;64.10;;;6.23;;
11185;SDS011;5649;52.422;13.754;2022-12-13T11:40:31;10.47;;;6.23;;
11185;SDS011;5649;52.422;13.754;2022-12-13T11:43:15;13.07;;;6.10;;
11185;SDS011;5649;52.422;13.754;2022-12-13T11:45:46;15.77;;;6.90;;
11185;SDS011;5649;52.422;13.754;2022-12-13T11:48:19;16.60;;;6.90;;
11185;SDS011;5649;52.422;13.754;2022-12-13T11:50:46;16.90;;;6.27;;
11185;SDS011;5649;52.422;13.754;2022-12-13T11:55:48;20.73;;;6.00;;
11185;SDS011;5649;52.422;13.754;2022-12-13T12:01:00;10.53;;;5.63;;
11185;SDS011;5649;52.422;13.754;2022-12-13T12:03:36;18.97;;;7.07;;
11185;SDS011;5649;52.422;13.754;2022-12-13T12:08:49;16.40;;;5.90;;
11185;SDS011;5649;52.422;13.754;2022-12-13T12:17:11;16.13;;;6.07;;
11185;SDS011;5649;52.422;13.754;2022-12-13T12:19:38;17.30;;;7.70;;
11185;SDS011;5649;52.422;13.754;2022-12-13T12:30:24;18.10;;;7.93;;
11185;SDS011;5649;52.422;13.754;2022-12-13T12:35:48;16.73;;;5.53;;
11185;SDS011;5649;52.422;13.754;2022-12-13T12:56:58;9.23;;;5.00;;
11185;SDS011;5649;52.422;13.754;2022-12-13T13:02:34;8.63;;;5.47;;
11185;SDS011;5649;52.422;13.754;2022-12-13T13:04:53;32.43;;;5.93;;
11185;SDS011;5649;52.422;13.754;2022-12-13T13:07:26;6.90;;;5.20;;
11185;SDS011;5649;52.422;13.754;2022-12-13T13:09:55;10.20;;;5.30;;
11185;SDS011;5649;52.422;13.754;2022-12-13T13:12:23;17.77;;;7.90;;
11185;SDS011;5649;52.422;13.754;2022-12-13T13:14:49;25.53;;;6.40;;
11185;SDS011;5649;52.422;13.754;2022-12-13T13:19:45;25.83;;;6.30;;
11185;SDS011;5649;52.422;13.754;2022-12-13T13:22:25;20.63;;;8.20;;
11185;SDS011;5649;52.422;13.754;2022-12-13T13:27:40;25.10;;;7.13;;
11185;SDS011;5649;52.422;13.754;2022-12-13T13:30:20;24.33;;;5.90;;
11185;SDS011;5649;52.422;13.754;2022-12-13T13:32:48;18.53;;;5.40;;
11185;SDS011;5649;52.422;13.754;2022-12-13T13:37:56;11.37;;;5.50;;
11185;SDS011;5649;52.422;13.754;2022-12-13T13:40:27;17.50;;;8.53;;
11185;SDS011;5649;52.422;13.754;2022-12-13T13:43:11;18.43;;;6.70;;
11185;SDS011;5649;52.422;13.754;2022-12-13T14:01:37;8.43;;;4.70;;
11185;SDS011;5649;52.422;13.754;2022-12-13T14:17:48;13.13;;;5.90;;
11185;SDS011;5649;52.422;13.754;2022-12-13T14:20:26;15.23;;;7.07;;
11185;SDS011;5649;52.422;13.754;2022-12-13T14:25:57;12.60;;;5.17;;
11185;SDS011;5649;52.422;13.754;2022-12-13T14:30:53;12.50;;;6.00;;
11185;SDS011;5649;52.422;13.754;2022-12-13T14:33:22;17.90;;;7.07;;
11185;SDS011;5649;52.422;13.754;2022-12-13T14:35:53;17.97;;;6.17;;
11185;SDS011;5649;52.422;13.754;2022-12-13T14:38:20;19.87;;;7.70;;
11185;SDS011;5649;52.422;13.754;2022-12-13T14:40:48;11.90;;;7.00;;
11185;SDS011;5649;52.422;13.754;2022-12-13T14:43:33;15.50;;;7.27;;
11185;SDS011;5649;52.422;13.754;2022-12-13T14:46:03;10.90;;;6.20;;
11185;SDS011;5649;52.422;13.754;2022-12-13T14:48:34;13.87;;;7.47;;
11185;SDS011;5649;52.422;13.754;2022-12-13T14:51:01;13.10;;;7.93;;
11185;SDS011;5649;52.422;13.754;2022-12-13T14:53:37;18.43;;;8.10;;
11185;SDS011;5649;52.422;13.754;2022-12-13T14:56:09;23.70;;;6.73;;
11185;SDS011;5649;52.422;13.754;2022-12-13T14:58:36;25.93;;;11.60;;
11185;SDS011;5649;52.422;13.754;2022-12-13T15:01:06;16.37;;;8.17;;
11185;SDS011;5649;52.422;13.754;2022-12-13T15:03:48;30.43;;;9.20;;
11185;SDS011;5649;52.422;13.754;2022-12-13T15:06:15;12.87;;;7.70;;
11185;SDS011;5649;52.422;13.754;2022-12-13T15:08:42;12.40;;;7.93;;
11185;SDS011;5649;52.422;13.754;2022-12-13T15:11:09;18.80;;;8.60;;
11185;SDS011;5649;52.422;13.754;2022-12-13T15:13:39;30.37;;;7.07;;
11185;SDS011;5649;52.422;13.754;2022-12-13T15:16:07;13.60;;;7.20;;
11185;SDS011;5649;52.422;13.754;2022-12-13T15:18:34;17.63;;;7.70;;
11185;SDS011;5649;52.422;13.754;2022-12-13T15:21:00;14.40;;;7.43;;
11185;SDS011;5649;52.422;13.754;2022-12-13T15:23:37;20.93;;;8.67;;
11185;SDS011;5649;52.422;13.754;2022-12-13T15:26:07;11.80;;;5.50;;
11185;SDS011;5649;52.422;13.754;2022-12-13T15:28:36;19.87;;;7.53;;
11185;SDS011;5649;52.422;13.754;2022-12-13T15:31:04;21.93;;;7.27;;
11185;SDS011;5649;52.422;13.754;2022-12-13T15:33:31;21.03;;;7.30;;
11185;SDS011;5649;52.422;13.754;2022-12-13T15:38:47;18.87;;;8.43;;
11185;SDS011;5649;52.422;13.754;2022-12-13T15:41:18;18.13;;;7.87;;
11185;SDS011;5649;52.422;13.754;2022-12-13T15:43:46;33.03;;;6.77;;
11185;SDS011;5649;52.422;13.754;2022-12-13T15:46:21;17.40;;;8.23;;
11185;SDS011;5649;52.422;13.754;2022-12-13T15:48:48;14.33;;;7.27;;
11185;SDS011;5649;52.422;13.754;2022-12-13T15:51:17;16.97;;;7.23;;
11185;SDS011;5649;52.422;13.754;2022-12-13T15:59:01;21.90;;;8.37;;
11185;SDS011;5649;52.422;13.754;2022-12-13T16:01:32;17.50;;;7.90;;
11185;SDS011;5649;52.422;13.754;2022-12-13T16:03:58;10.97;;;6.30;;
11185;SDS011;5649;52.422;13.754;2022-12-13T16:06:27;13.60;;;7.30;;
11185;SDS011;5649;52.422;13.754;2022-12-13T16:08:55;14.53;;;6.80;;
11185;SDS011;5649;52.422;13.754;2022-12-13T16:11:26;19.03;;;7.80;;
11185;SDS011;5649;52.422;13.754;2022-12-13T16:13:53;11.57;;;6.77;;
11185;SDS011;5649;52.422;13.754;2022-12-13T16:16:21;21.87;;;8.90;;
11185;SDS011;5649;52.422;13.754;2022-12-13T16:18:51;31.27;;;7.03;;
11185;SDS011;5649;52.422;13.754;2022-12-13T16:21:18;12.70;;;7.33;;
11185;SDS011;5649;52.422;13.754;2022-12-13T16:23:45;20.73;;;8.13;;
11185;SDS011;5649;52.422;13.754;2022-12-13T16:26:11;25.77;;;8.23;;
11185;SDS011;5649;52.422;13.754;2022-12-13T16:28:38;51.93;;;20.13;;
11185;SDS011;5649;52.422;13.754;2022-12-13T16:33:39;17.03;;;8.30;;
11185;SDS011;5649;52.422;13.754;2022-12-13T16:36:07;20.87;;;9.33;;
11185;SDS011;5649;52.422;13.754;2022-12-13T16:38:33;22.50;;;7.47;;
11185;SDS011;5649;52.422;13.754;2022-12-13T16:40:59;36.07;;;7.93;;
11185;SDS011;5649;52.422;13.754;2022-12-13T16:43:26;17.83;;;7.83;;
11185;SDS011;5649;52.422;13.754;2022-12-13T16:45:53;12.20;;;6.13;;
11185;SDS011;5649;52.422;13.754;2022-12-13T16:48:20;13.20;;;6.97;;
11185;SDS011;5649;52.422;13.754;2022-12-13T16:50:47;18.17;;;6.67;;
11185;SDS011;5649;52.422;13.754;2022-12-13T16:53:14;18.93;;;6.77;;
11185;SDS011;5649;52.422;13.754;2022-12-13T16:55:40;16.30;;;6.80;;
11185;SDS011;5649;52.422;13.754;2022-12-13T16:58:08;13.53;;;6.23;;
11185;SDS011;5649;52.422;13.754;2022-12-13T17:00:35;8.90;;;6.10;;
11185;SDS011;5649;52.422;13.754;2022-12-13T17:03:03;20.63;;;7.17;;
11185;SDS011;5649;52.422;13.754;2022-12-13T17:05:29;11.03;;;6.47;;
11185;SDS011;5649;52.422;13.754;2022-12-13T17:07:55;12.63;;;5.90;;
11185;SDS011;5649;52.422;13.754;2022-12-13T17:10:22;13.60;;;6.30;;
11185;SDS011;5649;52.422;13.754;2022-12-13T17:12:48;18.83;;;9.17;;
11185;SDS011;5649;52.422;13.754;2022-12-13T17:15:14;16.40;;;7.60;;